Terminal Aerodrome Forecast
Issued by NWS

Home | Current Version | Previous Version | Graphics & Text | Print | Product List | Glossary On
Versions: 1 2 3 4 5 6 7 8 9 10 11 12 13 14 15 16 17 18
000
FTUS43 KBIS 110800 AAA
TAFDIK
TAF AMD
KDIK 110845Z 1109/1206 32006KT P6SM VCFG SKC
      TEMPO 1109/1113 4SM BR
     FM111300 02007KT P6SM FEW120
     FM111700 04011KT P6SM SCT090 BKN130
     FM120100 04007KT P6SM SCT050 BKN080=

USA.gov is the U.S. government's official web portal to all federal, state and local government web resources and services.